Glouster Point, Virginia
Current Conditions -  °F | °C
As of 8:54 PM on Monday 22 Dec 2014 (Local Time) from KPHF Reporting Station
Light Rain Light Rain  
Wind Chill: 44°   Ceiling: 400
Heat Index: 46°   Visibility: 2mi
Dew Point: 42°   Wind: 5mph
Humidity: 86%   Direction: 360°N
Pressure: 30.04"   Gusts: NA
Location:  37.2577°N, 76.4965°W
Report Text: KPHF 230154Z 36004KT 2SM -RA BR OVC004 08/06 A3004 RMK AO2 SLP173 P0001 T00780056
Loading
Personal Weather Stations






























Interactive Weather Map New forecast layout! Learn more

10-Day Weather Forecast

Advertisements
Track Severe Weather on mobile